createdAt,value
2019-03-11T00:01:31.644Z,144.28
2019-03-11T00:04:27.834Z,129.23
2019-03-11T00:07:22.796Z,123.62
2019-03-11T00:10:17.999Z,126.90
2019-03-11T00:13:13.100Z,125.97
2019-03-11T00:16:09.129Z,113.95
2019-03-11T00:19:04.222Z,138.77
2019-03-11T00:21:59.305Z,124.40
2019-03-11T00:24:54.855Z,135.35
2019-03-11T00:27:50.078Z,128.30
2019-03-11T00:30:45.726Z,146.45
2019-03-11T00:33:40.832Z,129.42
2019-03-11T00:36:35.915Z,151.27
2019-03-11T00:39:30.873Z,153.82
2019-03-11T00:42:25.679Z,131.07
2019-03-11T00:45:21.005Z,129.53
2019-03-11T00:48:16.311Z,140.80
2019-03-11T00:51:11.971Z,162.75
2019-03-11T00:54:07.334Z,158.50
2019-03-11T00:57:03.487Z,160.32
2019-03-11T00:59:58.034Z,154.25
2019-03-11T01:02:54.261Z,147.05
2019-03-11T01:05:49.702Z,158.72
2019-03-11T01:08:45.212Z,174.45
2019-03-11T01:11:40.067Z,175.95
2019-03-11T01:14:36.062Z,182.32
2019-03-11T01:17:30.604Z,196.28
2019-03-11T01:20:25.255Z,182.53
2019-03-11T01:23:20.489Z,203.75
2019-03-11T01:26:15.837Z,201.58
2019-03-11T01:29:11.531Z,196.30
2019-03-11T01:32:06.259Z,181.67
2019-03-11T01:35:01.975Z,198.57
2019-03-11T01:37:57.198Z,207.40
2019-03-11T01:40:52.057Z,232.40
2019-03-11T01:43:46.674Z,193.82
2019-03-11T01:46:41.714Z,188.57
2019-03-11T01:49:36.352Z,189.67
2019-03-11T01:52:31.242Z,211.20
2019-03-11T01:55:26.365Z,195.07
2019-03-11T01:58:21.073Z,207.27
2019-03-11T02:01:16.654Z,179.55
2019-03-11T02:04:12.578Z,196.78
2019-03-11T02:07:07.923Z,232.43
2019-03-11T02:10:03.221Z,192.87
2019-03-11T02:12:58.258Z,185.75
2019-03-11T02:15:53.139Z,165.60
2019-03-11T02:18:47.979Z,237.45
2019-03-11T02:21:43.254Z,165.00
2019-03-11T02:24:38.105Z,147.13
2019-03-11T02:27:32.774Z,156.30
2019-03-11T02:30:27.797Z,148.95
2019-03-11T02:33:22.900Z,147.72
2019-03-11T02:36:17.933Z,151.55
2019-03-11T02:39:13.126Z,148.85
2019-03-11T02:42:08.279Z,175.80
2019-03-11T02:45:02.644Z,159.70
2019-03-11T02:47:57.683Z,155.25
2019-03-11T02:50:53.373Z,132.95
2019-03-11T02:53:48.445Z,112.60
2019-03-11T02:56:43.254Z,132.18
2019-03-11T02:59:38.151Z,125.62
2019-03-11T03:02:52.196Z,123.62
2019-03-11T03:05:50.478Z,118.08
2019-03-11T03:08:45.273Z,137.03
2019-03-11T03:11:40.194Z,110.85
2019-03-11T03:14:36.263Z,104.63
2019-03-11T03:17:31.377Z,114.65
2019-03-11T03:20:26.250Z,117.95
2019-03-11T03:23:21.041Z,108.27
2019-03-11T03:26:15.957Z,101.67
2019-03-11T03:29:10.674Z,114.88
2019-03-11T03:32:05.764Z,122.30
2019-03-11T03:35:00.899Z,116.88
2019-03-11T03:37:56.559Z,114.67
2019-03-11T03:40:51.706Z,111.32
2019-03-11T03:43:46.736Z,122.92
2019-03-11T03:46:45.480Z,123.72
2019-03-11T03:49:40.816Z,118.08
2019-03-11T03:52:35.727Z,116.53
2019-03-11T03:55:30.850Z,106.60
2019-03-11T03:58:26.272Z,123.30
2019-03-11T04:01:21.160Z,126.72
2019-03-11T04:04:16.141Z,120.62
2019-03-11T04:07:11.031Z,117.67
2019-03-11T04:10:06.306Z,137.62
2019-03-11T04:13:01.090Z,119.97
2019-03-11T04:15:56.547Z,95.87
2019-03-11T04:19:02.063Z,110.12
2019-03-11T04:21:57.637Z,111.32
2019-03-11T04:24:53.206Z,129.20
2019-03-11T04:27:48.819Z,114.25
2019-03-11T04:30:44.034Z,116.08
2019-03-11T04:33:38.946Z,117.87
2019-03-11T04:36:34.163Z,109.78
2019-03-11T04:39:29.459Z,118.85
2019-03-11T04:42:24.656Z,108.40
2019-03-11T04:45:20.171Z,147.35
2019-03-11T04:48:15.395Z,126.05
2019-03-11T04:51:10.802Z,127.20
2019-03-11T04:54:06.430Z,137.92
2019-03-11T04:57:01.473Z,140.60
2019-03-11T04:59:59.552Z,161.50
2019-03-11T05:02:55.012Z,145.30
2019-03-11T05:05:50.561Z,138.43
2019-03-11T05:08:46.440Z,156.35
2019-03-11T05:11:51.174Z,173.45
2019-03-11T05:14:47.334Z,135.80
2019-03-11T05:18:03.946Z,120.47
2019-03-11T05:21:02.880Z,152.95
2019-03-11T05:27:40.093Z,101.27
2019-03-11T05:30:39.788Z,85.75
2019-03-11T05:33:37.401Z,76.20
2019-03-11T05:36:34.655Z,76.02
2019-03-11T05:39:31.586Z,77.05
2019-03-11T05:42:28.006Z,73.07
2019-03-11T05:45:34.750Z,59.75
2019-03-11T05:48:42.119Z,75.22
2019-03-11T05:51:45.178Z,81.67
2019-03-11T05:54:49.269Z,68.78
2019-03-11T05:57:49.512Z,67.95
2019-03-11T06:00:49.320Z,73.30
2019-03-11T06:03:45.367Z,83.65
2019-03-11T06:06:42.843Z,59.33
2019-03-11T06:09:38.810Z,67.65
2019-03-11T06:12:35.586Z,63.63
2019-03-11T06:15:32.339Z,72.45
2019-03-11T06:18:44.287Z,68.42
2019-03-11T06:21:57.512Z,63.92
2019-03-11T06:24:53.749Z,67.85
2019-03-11T06:27:49.014Z,65.85
2019-03-11T06:31:05.208Z,70.62
2019-03-11T06:34:01.289Z,60.52
2019-03-11T06:36:57.513Z,75.57
2019-03-11T06:39:52.694Z,62.10
2019-03-11T06:42:51.202Z,69.45
2019-03-11T06:45:59.646Z,69.80
2019-03-11T06:48:56.216Z,81.67
2019-03-11T06:51:55.708Z,83.87
2019-03-11T06:54:52.767Z,61.02
2019-03-11T06:57:48.364Z,73.25
2019-03-11T07:00:56.462Z,59.48
2019-03-11T07:03:54.719Z,63.68
2019-03-11T07:06:50.252Z,60.55
2019-03-11T07:09:45.844Z,56.75
2019-03-11T07:13:01.890Z,55.78
2019-03-11T07:15:59.602Z,48.33
2019-03-11T07:19:00.949Z,47.10
2019-03-11T07:22:01.467Z,58.65
2019-03-11T07:25:00.575Z,54.45
2019-03-11T07:27:54.390Z,71.40
2019-03-11T07:30:50.500Z,77.10
2019-03-11T07:33:47.563Z,74.82
2019-03-11T07:36:44.480Z,70.22
2019-03-11T07:39:42.476Z,71.60
2019-03-11T07:42:48.063Z,55.60
2019-03-11T07:46:02.963Z,78.65
2019-03-11T07:48:58.304Z,85.38
2019-03-11T07:51:54.654Z,75.42
2019-03-11T07:54:50.229Z,69.30
2019-03-11T07:57:46.722Z,80.42
2019-03-11T08:00:53.286Z,77.45
2019-03-11T08:03:41.918Z,85.12
2019-03-11T08:06:37.401Z,75.42
2019-03-11T08:09:37.995Z,67.87
2019-03-11T08:13:26.966Z,75.97
2019-03-11T08:16:08.740Z,73.20
2019-03-11T08:19:06.504Z,78.85
2019-03-11T08:22:03.716Z,76.20
2019-03-11T08:24:59.674Z,73.52
2019-03-11T08:27:56.869Z,71.10
2019-03-11T08:30:52.441Z,72.45
2019-03-11T08:33:49.146Z,54.85
2019-03-11T08:36:44.644Z,51.15
2019-03-11T08:39:40.745Z,60.92
2019-03-11T08:42:37.268Z,50.08
2019-03-11T08:45:33.172Z,55.12
2019-03-11T08:49:44.831Z,56.33
2019-03-11T08:51:38.630Z,68.67
2019-03-11T08:54:33.819Z,66.28
2019-03-11T08:57:29.062Z,68.70
2019-03-11T09:00:29.110Z,64.00
2019-03-11T09:03:32.017Z,63.40
2019-03-11T09:06:27.580Z,77.70
2019-03-11T09:09:22.606Z,63.23
2019-03-11T09:12:17.791Z,79.10
2019-03-11T09:15:17.582Z,62.00
2019-03-11T09:18:13.412Z,63.15
2019-03-11T09:21:08.121Z,58.92
2019-03-11T09:24:05.420Z,62.27
2019-03-11T09:27:01.435Z,58.68
2019-03-11T09:29:56.765Z,64.37
2019-03-11T09:32:52.855Z,65.30
2019-03-11T09:35:50.286Z,73.12
2019-03-11T09:38:51.453Z,68.72
2019-03-11T09:41:48.663Z,69.17
2019-03-11T09:44:46.722Z,70.03
2019-03-11T09:47:42.831Z,69.35
2019-03-11T09:50:38.350Z,65.42
2019-03-11T09:53:33.939Z,64.53
2019-03-11T09:56:42.685Z,71.67
2019-03-11T09:59:31.296Z,71.67
2019-03-11T10:02:28.435Z,55.92
2019-03-11T10:05:26.551Z,68.15
2019-03-11T10:08:22.577Z,64.40
2019-03-11T10:11:17.920Z,65.17
2019-03-11T10:14:13.614Z,54.93
2019-03-11T10:17:08.686Z,67.45
2019-03-11T10:20:04.487Z,59.35
2019-03-11T10:23:01.596Z,64.55
2019-03-11T10:26:01.023Z,57.38
2019-03-11T10:29:02.579Z,64.75
2019-03-11T10:32:00.592Z,75.70
2019-03-11T10:35:02.814Z,55.90
2019-03-11T10:37:59.156Z,53.25
2019-03-11T10:41:12.200Z,76.00
2019-03-11T10:44:19.837Z,60.03
2019-03-11T10:47:21.730Z,63.80
2019-03-11T10:50:59.720Z,64.85
2019-03-11T10:58:13.826Z,72.65
2019-03-11T11:01:19.219Z,68.25
2019-03-11T11:04:23.592Z,73.25
2019-03-11T11:07:24.029Z,73.50
2019-03-11T11:10:17.365Z,65.50
2019-03-11T11:13:15.558Z,55.30
2019-03-11T11:16:17.602Z,66.25
2019-03-11T11:19:14.083Z,58.15
2019-03-11T11:22:09.441Z,55.40
2019-03-11T11:25:04.639Z,45.28
2019-03-11T11:28:01.722Z,51.08
2019-03-11T11:30:56.620Z,62.13
2019-03-11T11:33:52.283Z,65.90
2019-03-11T11:36:55.552Z,58.35
2019-03-11T11:39:52.668Z,69.67
2019-03-11T11:42:49.860Z,63.13
2019-03-11T11:45:49.811Z,63.00
2019-03-11T11:48:56.836Z,65.25
2019-03-11T11:52:34.997Z,64.85
2019-03-11T11:55:37.478Z,81.75
2019-03-11T11:58:33.070Z,61.40
2019-03-11T12:01:28.306Z,55.35
2019-03-11T12:04:34.113Z,68.47
2019-03-11T12:07:30.358Z,64.05
2019-03-11T12:10:28.312Z,60.70
2019-03-11T12:13:23.926Z,59.15
2019-03-11T12:16:20.784Z,58.33
2019-03-11T12:19:17.893Z,60.80
2019-03-11T12:22:18.681Z,68.60
2019-03-11T12:25:22.050Z,69.47
2019-03-11T12:28:17.065Z,72.08
2019-03-11T12:31:12.948Z,74.53
2019-03-11T12:34:09.981Z,78.45
2019-03-11T12:37:04.860Z,87.45
2019-03-11T12:40:00.558Z,81.92
2019-03-11T12:42:56.632Z,86.08
2019-03-11T12:45:53.724Z,96.37
2019-03-11T12:48:50.908Z,84.80
2019-03-11T12:51:50.043Z,70.85
2019-03-11T12:54:41.703Z,60.85
2019-03-11T12:57:36.820Z,71.40
2019-03-11T13:00:32.113Z,60.55
2019-03-11T13:03:27.714Z,79.82
2019-03-11T13:06:23.672Z,86.82
2019-03-11T13:09:19.539Z,92.60
2019-03-11T13:12:14.668Z,92.72
2019-03-11T13:15:10.024Z,101.20
2019-03-11T13:18:42.288Z,66.07
2019-03-11T13:21:38.949Z,69.45
2019-03-11T13:24:34.971Z,69.20
2019-03-11T13:27:30.290Z,122.90
2019-03-11T13:30:27.306Z,110.28
2019-03-11T13:33:22.624Z,118.17
2019-03-11T13:36:18.578Z,113.10
2019-03-11T13:39:14.109Z,121.62
2019-03-11T13:42:09.220Z,132.85
2019-03-11T13:45:04.184Z,152.82
2019-03-11T13:48:00.544Z,140.43
2019-03-11T13:50:55.306Z,145.97
2019-03-11T13:53:52.950Z,150.70
2019-03-11T13:56:47.547Z,157.95
2019-03-11T13:59:44.353Z,134.30
2019-03-11T14:02:40.279Z,122.78
2019-03-11T14:05:36.224Z,138.12
2019-03-11T14:08:33.813Z,129.55
2019-03-11T14:11:28.869Z,156.85
2019-03-11T14:14:23.985Z,138.22
2019-03-11T14:17:19.255Z,136.88
2019-03-11T14:20:15.420Z,117.50
2019-03-11T14:23:10.624Z,124.62
2019-03-11T14:26:06.053Z,122.70
2019-03-11T14:29:01.834Z,112.90
2019-03-11T14:31:57.328Z,131.25
2019-03-11T14:34:52.534Z,132.40
2019-03-11T14:37:49.692Z,119.82
2019-03-11T14:40:45.020Z,138.55
2019-03-11T14:43:40.830Z,135.70
2019-03-11T14:46:35.927Z,126.58
2019-03-11T14:49:31.904Z,158.37
2019-03-11T14:52:27.524Z,173.55
2019-03-11T14:55:22.724Z,135.90
2019-03-11T14:58:28.739Z,135.93
2019-03-11T15:01:14.118Z,137.90
2019-03-11T15:04:09.292Z,133.03
2019-03-11T15:07:05.942Z,143.75
2019-03-11T15:10:01.005Z,145.90
2019-03-11T15:12:56.170Z,131.63
2019-03-11T15:15:51.832Z,134.37
2019-03-11T15:18:47.126Z,133.47
2019-03-11T15:21:42.494Z,131.97
2019-03-11T15:24:39.150Z,134.35
2019-03-11T15:27:34.544Z,111.45
2019-03-11T15:30:29.866Z,127.50
2019-03-11T15:33:24.937Z,123.13
2019-03-11T15:36:19.862Z,123.40
2019-03-11T15:39:15.082Z,132.18
2019-03-11T15:42:10.405Z,137.77
2019-03-11T15:45:05.635Z,132.65
2019-03-11T15:48:00.870Z,130.97
2019-03-11T15:50:55.726Z,147.85
2019-03-11T15:53:51.450Z,158.10
2019-03-11T15:56:46.525Z,170.53
2019-03-11T15:59:41.352Z,164.15
2019-03-11T16:02:36.695Z,144.45
2019-03-11T16:05:32.429Z,150.97
2019-03-11T16:08:27.547Z,148.22
2019-03-11T16:11:22.503Z,145.43
2019-03-11T16:14:17.367Z,123.97
2019-03-11T16:17:12.606Z,136.97
2019-03-11T16:20:07.361Z,140.82
2019-03-11T16:23:02.612Z,157.00
2019-03-11T16:25:59.263Z,140.50
2019-03-11T16:28:54.572Z,136.65
2019-03-11T16:31:49.447Z,153.65
2019-03-11T16:34:46.635Z,156.20
2019-03-11T16:37:42.109Z,148.62
2019-03-11T16:40:37.407Z,148.25
2019-03-11T16:43:32.307Z,133.60
2019-03-11T16:46:27.946Z,139.22
2019-03-11T16:49:23.243Z,152.97
2019-03-11T16:52:18.151Z,135.50
2019-03-11T16:55:15.265Z,123.42
2019-03-11T16:58:11.014Z,116.42
2019-03-11T17:01:06.586Z,114.85
2019-03-11T17:04:02.842Z,127.62
2019-03-11T17:06:58.286Z,128.65
2019-03-11T17:09:54.894Z,111.30
2019-03-11T17:12:51.769Z,124.67
2019-03-11T17:15:47.257Z,127.67
2019-03-11T17:18:42.784Z,118.80
2019-03-11T17:21:37.945Z,104.58
2019-03-11T17:24:32.795Z,103.32
2019-03-11T17:27:27.799Z,98.95
2019-03-11T17:30:22.832Z,116.20
2019-03-11T17:33:19.222Z,108.90
2019-03-11T17:36:16.936Z,98.07
2019-03-11T17:39:12.676Z,104.85
2019-03-11T17:42:08.161Z,97.08
2019-03-11T17:45:03.198Z,99.22
2019-03-11T17:47:58.466Z,102.40
2019-03-11T17:50:53.965Z,106.05
2019-03-11T17:53:49.398Z,113.80
2019-03-11T17:56:44.148Z,114.12
2019-03-11T17:59:39.902Z,103.20
2019-03-11T18:02:34.832Z,111.03
2019-03-11T18:05:30.084Z,100.05
2019-03-11T18:08:24.909Z,105.22
2019-03-11T18:11:20.149Z,107.87
2019-03-11T18:14:15.435Z,98.87
2019-03-11T18:17:10.383Z,98.33
2019-03-11T18:20:05.142Z,96.02
2019-03-11T18:23:00.536Z,107.03
2019-03-11T18:25:55.450Z,99.42
2019-03-11T18:28:50.988Z,104.23
2019-03-11T18:31:45.910Z,97.22
2019-03-11T18:34:40.790Z,97.90
2019-03-11T18:37:35.769Z,95.35
2019-03-11T18:40:31.693Z,103.53
2019-03-11T18:43:26.835Z,112.45
2019-03-11T18:46:21.814Z,107.47
2019-03-11T18:49:16.815Z,110.28
2019-03-11T18:52:12.459Z,119.00
2019-03-11T18:55:07.809Z,107.85
2019-03-11T18:58:03.675Z,96.00
2019-03-11T19:00:58.874Z,124.27
2019-03-11T19:03:54.365Z,117.87
2019-03-11T19:06:49.690Z,104.75
2019-03-11T19:09:44.745Z,107.00
2019-03-11T19:12:39.670Z,107.12
2019-03-11T19:15:34.928Z,123.45
2019-03-11T19:18:30.098Z,108.42
2019-03-11T19:21:24.996Z,116.47
2019-03-11T19:24:19.896Z,104.17
2019-03-11T19:27:14.678Z,103.15
2019-03-11T19:30:10.736Z,116.80
2019-03-11T19:33:06.295Z,113.90
2019-03-11T19:36:01.510Z,115.97
2019-03-11T19:38:57.111Z,127.00
2019-03-11T19:41:52.275Z,114.55
2019-03-11T19:44:47.581Z,110.57
2019-03-11T19:47:42.915Z,133.07
2019-03-11T19:50:38.132Z,121.15
2019-03-11T19:53:34.926Z,106.37
2019-03-11T19:56:30.079Z,97.45
2019-03-11T19:59:25.230Z,118.60
2019-03-11T20:02:20.883Z,103.62
2019-03-11T20:05:17.837Z,95.90
2019-03-11T20:08:12.877Z,107.97
2019-03-11T20:11:07.974Z,96.82
2019-03-11T20:14:03.505Z,113.22
2019-03-11T20:16:58.838Z,90.15
2019-03-11T20:19:54.413Z,108.10
2019-03-11T20:22:49.768Z,92.35
2019-03-11T20:25:45.000Z,89.92
2019-03-11T20:28:40.216Z,112.70
2019-03-11T20:31:36.954Z,98.20
2019-03-11T20:34:31.986Z,92.60
2019-03-11T20:37:28.422Z,98.67
2019-03-11T20:40:23.317Z,103.78
2019-03-11T20:43:17.827Z,93.25
2019-03-11T20:46:12.743Z,111.72
2019-03-11T20:49:07.764Z,106.92
2019-03-11T20:52:04.573Z,122.50
2019-03-11T20:55:01.381Z,108.50
2019-03-11T20:57:56.706Z,108.83
2019-03-11T21:00:52.067Z,100.42
2019-03-11T21:03:46.938Z,110.35
2019-03-11T21:06:43.705Z,112.32
2019-03-11T21:09:38.835Z,119.17
2019-03-11T21:12:34.745Z,123.30
2019-03-11T21:15:30.116Z,121.33
2019-03-11T21:18:25.206Z,116.88
2019-03-11T21:21:22.034Z,125.25
2019-03-11T21:24:17.017Z,130.20
2019-03-11T21:27:12.014Z,129.55
2019-03-11T21:30:07.329Z,105.85
2019-03-11T21:33:02.283Z,112.92
2019-03-11T21:35:57.150Z,111.47
2019-03-11T21:38:52.746Z,111.97
2019-03-11T21:41:49.219Z,121.67
2019-03-11T21:44:45.957Z,132.45
2019-03-11T21:47:41.253Z,135.95
2019-03-11T21:50:36.085Z,127.42
2019-03-11T21:53:31.124Z,136.60
2019-03-11T21:56:28.115Z,138.12
2019-03-11T21:59:23.833Z,156.82
2019-03-11T22:02:18.726Z,184.43
2019-03-11T22:05:13.946Z,219.97
2019-03-11T22:08:10.889Z,203.83
2019-03-11T22:11:06.074Z,189.77
2019-03-11T22:14:01.297Z,200.18
2019-03-11T22:16:56.164Z,190.47
2019-03-11T22:19:51.649Z,192.10
2019-03-11T22:22:46.745Z,169.07
2019-03-11T22:25:43.469Z,166.92
2019-03-11T22:28:38.780Z,153.62
2019-03-11T22:31:33.563Z,147.45
2019-03-11T22:34:28.790Z,136.97
2019-03-11T22:37:23.530Z,165.12
2019-03-11T22:40:18.883Z,153.85
2019-03-11T22:43:14.163Z,164.75
2019-03-11T22:46:10.562Z,211.72
2019-03-11T22:49:05.311Z,198.53
2019-03-11T22:52:00.403Z,231.43
2019-03-11T22:54:55.424Z,229.13
2019-03-11T22:57:52.114Z,256.57
2019-03-11T23:01:02.130Z,256.27
2019-03-11T23:03:57.859Z,262.17
2019-03-11T23:06:52.606Z,245.75
2019-03-11T23:09:48.049Z,232.25
2019-03-11T23:12:42.805Z,229.10
2019-03-11T23:15:38.033Z,210.30
2019-03-11T23:18:33.242Z,252.90
2019-03-11T23:21:29.679Z,225.90
2019-03-11T23:24:24.471Z,230.62
2019-03-11T23:27:19.301Z,227.38
2019-03-11T23:30:14.447Z,206.93
2019-03-11T23:33:09.151Z,231.57
2019-03-11T23:36:07.088Z,254.60
2019-03-11T23:38:59.742Z,258.45
2019-03-11T23:41:54.975Z,269.48
2019-03-11T23:44:50.643Z,284.92
2019-03-11T23:47:45.894Z,228.22
2019-03-11T23:50:40.813Z,242.35
2019-03-11T23:53:36.549Z,188.95
2019-03-11T23:56:32.248Z,206.32
2019-03-11T23:59:27.194Z,213.70
